createdAt,value
2023-08-30T00:00:28.064Z,1.17
2023-08-30T00:02:54.769Z,1.40
2023-08-30T00:05:21.419Z,1.23
2023-08-30T00:07:48.044Z,0.90
2023-08-30T00:10:14.654Z,1.00
2023-08-30T00:12:41.696Z,1.30
2023-08-30T00:15:08.718Z,1.15
2023-08-30T00:17:36.320Z,1.02
2023-08-30T00:20:03.965Z,1.20
2023-08-30T00:22:30.656Z,1.15
2023-08-30T00:24:57.218Z,1.05
2023-08-30T00:27:23.817Z,1.05
2023-08-30T00:29:50.407Z,1.13
2023-08-30T00:32:17.010Z,1.30
2023-08-30T00:34:43.863Z,0.82
2023-08-30T00:37:13.072Z,1.15
2023-08-30T00:39:42.521Z,1.00
2023-08-30T00:42:09.113Z,1.30
2023-08-30T00:44:36.211Z,0.90
2023-08-30T00:47:03.565Z,1.20
2023-08-30T00:49:31.295Z,1.48
2023-08-30T00:52:03.571Z,1.33
2023-08-30T00:54:30.281Z,1.17
2023-08-30T00:56:57.758Z,1.30
2023-08-30T00:59:25.248Z,1.48
2023-08-30T01:01:56.047Z,1.63
2023-08-30T01:04:23.340Z,1.27
2023-08-30T01:06:50.023Z,1.70
2023-08-30T01:09:17.272Z,2.05
2023-08-30T01:12:01.443Z,1.75
2023-08-30T01:14:37.307Z,2.20
2023-08-30T01:17:06.052Z,1.38
2023-08-30T01:19:44.845Z,1.70
2023-08-30T01:22:16.505Z,1.00
2023-08-30T01:24:46.773Z,1.23
2023-08-30T01:27:14.858Z,1.70
2023-08-30T01:29:44.525Z,1.23
2023-08-30T01:32:11.781Z,1.50
2023-08-30T01:34:39.878Z,1.65
2023-08-30T01:37:10.260Z,2.67
2023-08-30T01:39:42.099Z,1.70
2023-08-30T01:42:09.337Z,1.33
2023-08-30T01:44:37.354Z,1.55
2023-08-30T01:47:04.415Z,1.48
2023-08-30T01:49:34.528Z,1.60
2023-08-30T01:52:01.490Z,1.95
2023-08-30T01:54:29.217Z,2.13
2023-08-30T01:56:55.951Z,1.70
2023-08-30T01:59:22.608Z,1.85
2023-08-30T02:01:49.239Z,1.75
2023-08-30T02:04:15.913Z,1.65
2023-08-30T02:06:57.206Z,1.88
2023-08-30T02:09:40.437Z,1.77
2023-08-30T02:24:23.508Z,2.00
2023-08-30T02:26:50.206Z,1.98
2023-08-30T02:29:16.877Z,2.17
2023-08-30T02:31:43.724Z,1.73
2023-08-30T02:34:11.013Z,1.95
2023-08-30T02:36:38.139Z,2.53
2023-08-30T02:39:04.854Z,2.00
2023-08-30T02:41:32.118Z,1.85
2023-08-30T02:43:58.958Z,1.85
2023-08-30T02:46:25.579Z,1.67
2023-08-30T02:48:53.228Z,2.00
2023-08-30T02:51:19.806Z,1.75
2023-08-30T02:53:46.342Z,1.98
2023-08-30T02:56:12.947Z,2.10
2023-08-30T02:58:39.559Z,1.92
2023-08-30T03:01:06.849Z,2.97
2023-08-30T03:03:34.271Z,1.90
2023-08-30T03:06:02.145Z,1.50
2023-08-30T03:08:29.866Z,2.10
2023-08-30T03:10:57.463Z,2.00
2023-08-30T03:13:24.052Z,1.52
2023-08-30T03:15:50.785Z,2.20
2023-08-30T03:18:17.414Z,2.28
2023-08-30T03:20:44.045Z,1.90
2023-08-30T03:23:10.688Z,1.52
2023-08-30T03:25:37.364Z,1.92
2023-08-30T03:28:04.388Z,1.52
2023-08-30T03:30:31.230Z,2.20
2023-08-30T03:32:57.962Z,1.92
2023-08-30T03:35:24.632Z,1.95
2023-08-30T03:37:51.440Z,1.85
2023-08-30T03:40:20.592Z,1.42
2023-08-30T03:42:47.231Z,1.60
2023-08-30T03:45:15.009Z,1.58
2023-08-30T03:47:41.654Z,1.98
2023-08-30T03:50:08.541Z,1.50
2023-08-30T03:52:36.070Z,1.40
2023-08-30T03:55:03.235Z,1.67
2023-08-30T03:57:29.918Z,1.75
2023-08-30T03:59:56.575Z,1.45
2023-08-30T04:02:26.802Z,1.90
2023-08-30T04:04:53.486Z,1.65
2023-08-30T04:07:20.364Z,1.85
2023-08-30T04:09:49.087Z,1.35
2023-08-30T04:12:15.829Z,1.63
2023-08-30T04:14:42.710Z,1.80
2023-08-30T04:17:09.289Z,1.73
2023-08-30T04:19:35.872Z,1.17
2023-08-30T04:22:02.438Z,1.50
2023-08-30T04:24:29.131Z,1.58
2023-08-30T04:26:55.792Z,1.55
2023-08-30T04:29:22.367Z,1.90
2023-08-30T04:31:50.467Z,1.45
2023-08-30T04:34:17.311Z,1.35
2023-08-30T04:36:44.015Z,1.67
2023-08-30T04:39:13.457Z,1.60
2023-08-30T04:41:40.054Z,1.77
2023-08-30T04:44:06.726Z,1.30
2023-08-30T04:46:33.456Z,1.42
2023-08-30T04:49:00.081Z,1.23
2023-08-30T04:51:26.657Z,1.27
2023-08-30T04:53:53.245Z,1.98
2023-08-30T04:56:20.094Z,1.40
2023-08-30T04:58:46.814Z,1.27
2023-08-30T05:01:16.960Z,1.30
2023-08-30T05:03:48.222Z,1.35
2023-08-30T05:06:17.678Z,1.52
2023-08-30T05:08:44.780Z,1.30
2023-08-30T05:11:12.369Z,1.45
2023-08-30T05:13:39.194Z,1.02
2023-08-30T05:16:06.002Z,1.23
2023-08-30T05:18:33.522Z,1.77
2023-08-30T05:21:04.683Z,1.92
2023-08-30T05:23:32.059Z,1.95
2023-08-30T05:25:58.747Z,1.85
2023-08-30T05:28:25.385Z,1.88
2023-08-30T05:30:51.983Z,1.63
2023-08-30T05:33:33.778Z,2.00
2023-08-30T05:36:23.401Z,1.85
2023-08-30T05:39:08.402Z,2.00
2023-08-30T05:41:43.288Z,1.73
2023-08-30T05:44:10.196Z,2.28
2023-08-30T05:46:36.817Z,1.60
2023-08-30T05:49:04.382Z,2.20
2023-08-30T05:51:30.975Z,2.42
2023-08-30T05:53:57.562Z,1.88
2023-08-30T05:56:24.237Z,2.17
2023-08-30T05:58:51.417Z,1.95
2023-08-30T06:01:19.438Z,1.95
2023-08-30T06:03:47.021Z,2.35
2023-08-30T06:06:14.916Z,2.10
2023-08-30T06:08:41.554Z,1.67
2023-08-30T06:11:08.201Z,2.47
2023-08-30T06:13:34.911Z,2.67
2023-08-30T06:16:01.568Z,3.03
2023-08-30T06:18:33.491Z,3.13
2023-08-30T06:21:00.093Z,3.05
2023-08-30T06:23:26.807Z,3.55
2023-08-30T06:25:56.780Z,2.92
2023-08-30T06:28:23.492Z,2.75
2023-08-30T06:30:50.162Z,3.95
2023-08-30T06:33:16.775Z,3.40
2023-08-30T06:35:43.633Z,3.50
2023-08-30T06:38:10.609Z,3.42
2023-08-30T06:40:38.370Z,3.22
2023-08-30T06:43:04.967Z,4.15
2023-08-30T06:45:31.521Z,3.55
2023-08-30T06:47:58.217Z,4.20
2023-08-30T06:50:24.781Z,4.32
2023-08-30T06:52:52.458Z,4.20
2023-08-30T06:55:19.075Z,4.40
2023-08-30T06:57:49.493Z,4.00
2023-08-30T07:00:16.255Z,3.67
2023-08-30T07:02:46.113Z,4.65
2023-08-30T07:05:16.229Z,3.97
2023-08-30T07:07:42.935Z,4.38
2023-08-30T07:10:12.675Z,4.88
2023-08-30T07:12:39.362Z,4.63
2023-08-30T07:15:06.229Z,5.20
2023-08-30T07:17:46.511Z,4.82
2023-08-30T07:20:19.062Z,4.78
2023-08-30T07:22:45.654Z,5.50
2023-08-30T07:25:13.907Z,5.47
2023-08-30T07:27:40.511Z,5.25
2023-08-30T07:30:07.398Z,5.05
2023-08-30T07:32:34.090Z,4.68
2023-08-30T07:35:01.006Z,5.05
2023-08-30T07:37:28.371Z,4.72
2023-08-30T07:39:56.102Z,4.60
2023-08-30T07:42:23.386Z,3.72
2023-08-30T07:44:50.264Z,4.20
2023-08-30T07:47:17.208Z,3.85
2023-08-30T07:49:43.848Z,3.83
2023-08-30T07:52:12.009Z,3.70
2023-08-30T07:54:40.084Z,5.07
2023-08-30T07:57:06.950Z,3.85
2023-08-30T07:59:34.890Z,3.47
2023-08-30T08:02:01.811Z,4.32
2023-08-30T08:04:28.542Z,3.78
2023-08-30T08:06:57.138Z,3.60
2023-08-30T08:09:25.054Z,3.75
2023-08-30T08:11:51.721Z,4.07
2023-08-30T08:14:18.519Z,3.22
2023-08-30T08:16:45.140Z,3.90
2023-08-30T08:19:13.703Z,3.80
2023-08-30T08:21:40.362Z,4.50
2023-08-30T08:24:08.591Z,4.05
2023-08-30T08:26:35.320Z,3.60
2023-08-30T08:29:01.957Z,3.30
2023-08-30T08:31:28.803Z,3.05
2023-08-30T08:34:10.938Z,3.35
2023-08-30T08:36:39.582Z,3.20
2023-08-30T08:39:06.820Z,2.97
2023-08-30T08:41:36.947Z,3.10
2023-08-30T08:44:05.498Z,2.88
2023-08-30T08:46:32.501Z,2.80
2023-08-30T08:48:59.922Z,2.63
2023-08-30T08:51:27.070Z,2.00
2023-08-30T08:53:54.785Z,2.67
2023-08-30T08:56:21.578Z,2.92
2023-08-30T08:58:48.156Z,2.85
2023-08-30T09:01:29.292Z,2.25
2023-08-30T09:04:02.065Z,2.70
2023-08-30T09:06:29.502Z,1.35
2023-08-30T09:08:56.005Z,2.30
2023-08-30T09:11:30.180Z,1.67
2023-08-30T09:14:03.074Z,1.77
2023-08-30T09:16:29.903Z,1.50
2023-08-30T09:19:10.242Z,1.55
2023-08-30T09:21:37.850Z,1.42
2023-08-30T09:24:05.403Z,1.20
2023-08-30T09:26:33.053Z,1.40
2023-08-30T09:29:06.286Z,1.80
2023-08-30T09:31:37.262Z,1.60
2023-08-30T09:34:04.294Z,1.63
2023-08-30T09:36:40.551Z,1.20
2023-08-30T09:39:08.677Z,1.10
2023-08-30T09:41:35.449Z,0.90
2023-08-30T09:44:13.598Z,0.90
2023-08-30T09:46:51.523Z,1.15
2023-08-30T09:49:21.756Z,1.13
2023-08-30T09:51:48.946Z,0.85
2023-08-30T09:54:36.630Z,1.63
2023-08-30T09:57:05.816Z,0.82
2023-08-30T09:59:44.768Z,0.90
2023-08-30T10:02:13.116Z,0.60
2023-08-30T10:04:43.040Z,0.95
2023-08-30T10:07:10.429Z,1.13
2023-08-30T10:09:39.003Z,1.00
2023-08-30T10:12:07.492Z,1.17
2023-08-30T10:14:35.659Z,1.00
2023-08-30T10:17:08.226Z,0.80
2023-08-30T10:19:35.495Z,0.80
2023-08-30T10:22:04.924Z,0.57
2023-08-30T10:24:52.233Z,0.80
2023-08-30T10:27:27.502Z,1.40
2023-08-30T10:29:54.877Z,1.08
2023-08-30T10:32:25.138Z,1.00
2023-08-30T10:34:52.465Z,0.70
2023-08-30T10:37:25.582Z,0.90
2023-08-30T10:39:52.180Z,1.30
2023-08-30T10:42:23.453Z,0.85
2023-08-30T10:45:12.260Z,0.88
2023-08-30T10:47:40.811Z,0.90
2023-08-30T10:50:08.658Z,0.90
2023-08-30T10:52:35.418Z,0.75
2023-08-30T10:55:09.273Z,1.05
2023-08-30T10:57:36.708Z,0.65
2023-08-30T11:00:13.246Z,1.55
2023-08-30T11:02:40.024Z,1.00
2023-08-30T11:05:07.532Z,1.20
2023-08-30T11:07:34.280Z,0.70
2023-08-30T11:10:01.199Z,0.90
2023-08-30T11:12:28.184Z,1.23
2023-08-30T11:14:55.426Z,0.85
2023-08-30T11:17:22.364Z,0.98
2023-08-30T11:19:57.967Z,0.85
2023-08-30T11:26:53.387Z,0.70
2023-08-30T11:33:51.016Z,0.52
2023-08-30T11:37:08.238Z,0.70
2023-08-30T11:40:00.280Z,0.82
2023-08-30T11:42:27.042Z,0.52
2023-08-30T11:44:56.346Z,1.40
2023-08-30T11:47:26.777Z,0.60
2023-08-30T11:49:54.789Z,0.52
2023-08-30T11:52:22.178Z,0.77
2023-08-30T11:54:49.496Z,0.70
2023-08-30T11:57:16.190Z,1.02
2023-08-30T12:00:13.532Z,0.85
2023-08-30T12:02:41.278Z,1.23
2023-08-30T12:05:11.639Z,0.93
2023-08-30T12:21:57.985Z,0.63
2023-08-30T12:24:24.797Z,0.60
2023-08-30T12:26:51.614Z,0.60
2023-08-30T12:29:18.229Z,0.60
2023-08-30T12:31:44.997Z,1.27
2023-08-30T12:34:11.779Z,0.60
2023-08-30T12:36:38.878Z,1.75
2023-08-30T12:39:07.331Z,0.82
2023-08-30T12:41:34.555Z,0.93
2023-08-30T12:44:02.179Z,0.80
2023-08-30T12:46:28.790Z,0.60
2023-08-30T12:48:58.188Z,0.98
2023-08-30T12:51:26.364Z,0.80
2023-08-30T12:53:52.945Z,1.23
2023-08-30T12:56:19.582Z,0.82
2023-08-30T12:58:48.161Z,0.70
2023-08-30T13:01:14.811Z,0.60
2023-08-30T13:03:41.522Z,1.00
2023-08-30T13:06:08.757Z,0.50
2023-08-30T13:08:35.342Z,0.80
2023-08-30T13:11:02.243Z,0.60
2023-08-30T13:13:28.819Z,0.50
2023-08-30T13:15:55.714Z,0.70
2023-08-30T13:18:22.656Z,0.77
2023-08-30T13:20:49.276Z,0.77
2023-08-30T13:23:15.785Z,0.60
2023-08-30T13:25:42.521Z,0.80
2023-08-30T13:28:09.261Z,0.75
2023-08-30T13:30:36.491Z,1.00
2023-08-30T13:33:03.392Z,0.85
2023-08-30T13:35:30.322Z,0.63
2023-08-30T13:37:57.487Z,0.63
2023-08-30T13:40:30.799Z,0.60
2023-08-30T13:42:57.519Z,0.50
2023-08-30T13:45:24.677Z,0.68
2023-08-30T13:47:54.179Z,0.45
2023-08-30T13:50:20.825Z,1.02
2023-08-30T13:52:50.490Z,0.80
2023-08-30T13:55:17.260Z,0.73
2023-08-30T13:57:48.863Z,0.52
2023-08-30T14:00:18.497Z,0.90
2023-08-30T14:02:45.358Z,0.82
2023-08-30T14:05:12.069Z,0.70
2023-08-30T14:07:39.130Z,1.20
2023-08-30T14:10:06.444Z,0.60
2023-08-30T14:12:34.412Z,0.80
2023-08-30T14:15:02.263Z,1.23
2023-08-30T14:17:29.254Z,0.52
2023-08-30T14:19:56.529Z,0.60
2023-08-30T14:22:23.520Z,0.80
2023-08-30T14:25:02.591Z,0.57
2023-08-30T14:27:36.889Z,1.05
2023-08-30T14:30:03.715Z,0.70
2023-08-30T14:32:30.617Z,0.80
2023-08-30T14:34:57.163Z,0.50
2023-08-30T14:37:23.739Z,0.65
2023-08-30T14:39:50.544Z,0.60
2023-08-30T14:42:17.172Z,0.80
2023-08-30T14:44:43.784Z,0.50
2023-08-30T14:47:10.772Z,0.70
2023-08-30T14:49:37.437Z,0.50
2023-08-30T14:52:04.232Z,0.70
2023-08-30T14:58:51.728Z,0.80
2023-08-30T15:01:18.522Z,0.77
2023-08-30T15:03:45.965Z,0.80
2023-08-30T15:06:12.789Z,0.95
2023-08-30T15:08:39.386Z,1.27
2023-08-30T15:11:06.406Z,0.95
2023-08-30T15:13:35.092Z,0.60
2023-08-30T15:16:01.640Z,0.63
2023-08-30T15:29:19.646Z,0.80
2023-08-30T15:31:51.340Z,0.57
2023-08-30T15:34:21.702Z,0.95
2023-08-30T15:36:48.372Z,1.15
2023-08-30T15:39:15.991Z,1.08
2023-08-30T15:41:42.780Z,1.58
2023-08-30T15:44:09.430Z,1.20
2023-08-30T15:46:36.313Z,1.33
2023-08-30T15:49:03.212Z,1.05
2023-08-30T15:51:29.748Z,1.08
2023-08-30T15:53:56.325Z,0.90
2023-08-30T15:56:23.827Z,1.52
2023-08-30T15:58:50.458Z,1.27
2023-08-30T16:01:18.936Z,0.90
2023-08-30T16:03:45.618Z,1.30
2023-08-30T16:06:12.482Z,1.48
2023-08-30T16:08:39.051Z,1.02
2023-08-30T16:11:06.758Z,0.98
2023-08-30T16:13:33.277Z,1.30
2023-08-30T16:16:01.390Z,1.23
2023-08-30T16:18:29.143Z,0.77
2023-08-30T16:20:55.791Z,1.00
2023-08-30T16:23:22.414Z,0.90
2023-08-30T16:25:49.011Z,0.70
2023-08-30T16:28:15.570Z,0.95
2023-08-30T16:30:42.168Z,0.60
2023-08-30T16:33:09.655Z,0.70
2023-08-30T16:35:36.343Z,0.77
2023-08-30T16:38:05.068Z,0.90
2023-08-30T16:40:32.976Z,1.08
2023-08-30T16:43:01.045Z,0.60
2023-08-30T16:45:27.642Z,0.93
2023-08-30T16:48:06.671Z,1.33
2023-08-30T16:50:35.342Z,0.80
2023-08-30T16:53:02.070Z,0.85
2023-08-30T16:55:28.705Z,1.20
2023-08-30T16:57:55.306Z,1.23
2023-08-30T17:00:22.188Z,1.15
2023-08-30T17:02:49.051Z,1.17
2023-08-30T17:05:15.771Z,0.80
2023-08-30T17:07:43.719Z,0.90
2023-08-30T17:10:10.755Z,1.15
2023-08-30T17:12:38.254Z,0.90
2023-08-30T17:15:05.743Z,1.27
2023-08-30T17:17:32.406Z,0.80
2023-08-30T17:19:59.231Z,1.10
2023-08-30T17:22:26.264Z,1.05
2023-08-30T17:24:53.052Z,1.00
2023-08-30T17:27:19.740Z,1.33
2023-08-30T17:29:46.592Z,0.90
2023-08-30T17:32:14.347Z,1.65
2023-08-30T17:34:41.781Z,1.35
2023-08-30T17:37:08.890Z,1.23
2023-08-30T17:39:37.940Z,1.30
2023-08-30T17:42:05.042Z,1.20
2023-08-30T17:44:33.628Z,1.52
2023-08-30T17:47:01.561Z,1.30
2023-08-30T17:49:28.519Z,1.45
2023-08-30T17:51:55.241Z,1.17
2023-08-30T17:54:22.300Z,1.33
2023-08-30T17:56:49.018Z,1.10
2023-08-30T17:59:17.615Z,0.82
2023-08-30T18:01:46.204Z,1.77
2023-08-30T18:04:12.928Z,1.58
2023-08-30T18:06:39.559Z,1.63
2023-08-30T18:09:08.900Z,1.23
2023-08-30T18:11:39.739Z,1.40
2023-08-30T18:14:06.405Z,1.33
2023-08-30T18:16:33.063Z,1.38
2023-08-30T18:18:59.709Z,1.50
2023-08-30T18:21:27.283Z,1.65
2023-08-30T18:24:12.815Z,1.50
2023-08-30T18:26:39.588Z,1.48
2023-08-30T18:29:07.608Z,1.70
2023-08-30T18:31:34.729Z,1.58
2023-08-30T18:34:01.327Z,1.58
2023-08-30T18:36:28.680Z,1.30
2023-08-30T18:38:55.682Z,1.63
2023-08-30T18:41:22.835Z,1.33
2023-08-30T18:43:49.509Z,1.45
2023-08-30T18:46:19.534Z,1.77
2023-08-30T18:48:46.616Z,1.48
2023-08-30T18:51:13.462Z,1.27
2023-08-30T18:53:40.446Z,1.35
2023-08-30T18:56:07.207Z,1.73
2023-08-30T18:58:35.001Z,1.27
2023-08-30T19:01:01.919Z,1.17
2023-08-30T19:03:28.732Z,1.20
2023-08-30T19:05:55.664Z,1.58
2023-08-30T19:08:22.302Z,1.75
2023-08-30T19:10:48.952Z,1.80
2023-08-30T19:13:15.822Z,1.60
2023-08-30T19:15:42.573Z,1.55
2023-08-30T19:18:09.312Z,1.98
2023-08-30T19:20:36.063Z,1.65
2023-08-30T19:23:02.698Z,1.98
2023-08-30T19:25:32.992Z,1.48
2023-08-30T19:28:01.710Z,2.03
2023-08-30T19:30:28.364Z,1.73
2023-08-30T19:32:55.063Z,1.80
2023-08-30T19:35:21.696Z,1.90
2023-08-30T19:37:52.936Z,2.10
2023-08-30T19:40:19.559Z,2.22
2023-08-30T19:42:48.587Z,2.00
2023-08-30T19:45:17.279Z,2.00
2023-08-30T19:47:44.019Z,1.48
2023-08-30T19:50:10.755Z,1.83
2023-08-30T19:52:37.447Z,1.70
2023-08-30T19:55:04.188Z,1.77
2023-08-30T19:57:32.172Z,2.20
2023-08-30T19:59:58.984Z,2.08
2023-08-30T20:02:25.701Z,3.33
2023-08-30T20:04:53.290Z,1.95
2023-08-30T20:07:20.088Z,2.60
2023-08-30T20:09:46.902Z,1.65
2023-08-30T20:12:13.491Z,1.95
2023-08-30T20:14:40.262Z,2.63
2023-08-30T20:17:07.597Z,2.47
2023-08-30T20:19:35.035Z,3.50
2023-08-30T20:22:02.978Z,2.55
2023-08-30T20:24:29.913Z,2.22
2023-08-30T20:26:56.905Z,2.88
2023-08-30T20:29:24.201Z,2.75
2023-08-30T20:31:50.930Z,3.08
2023-08-30T20:34:19.482Z,2.63
2023-08-30T20:36:46.169Z,3.13
2023-08-30T20:39:13.225Z,3.05
2023-08-30T20:41:40.502Z,2.85
2023-08-30T20:44:09.862Z,2.50
2023-08-30T20:46:36.829Z,2.47
2023-08-30T20:49:04.287Z,3.70
2023-08-30T20:51:30.969Z,3.15
2023-08-30T20:54:02.064Z,3.03
2023-08-30T20:56:31.607Z,2.63
2023-08-30T20:59:01.256Z,3.10
2023-08-30T21:01:30.917Z,3.17
2023-08-30T21:04:17.332Z,3.38
2023-08-30T21:06:47.350Z,3.05
2023-08-30T21:09:13.988Z,3.33
2023-08-30T21:11:40.679Z,2.60
2023-08-30T21:14:07.379Z,2.58
2023-08-30T21:16:34.036Z,3.20
2023-08-30T21:19:00.577Z,2.85
2023-08-30T21:21:27.170Z,2.85
2023-08-30T21:23:53.844Z,2.92
2023-08-30T21:26:20.464Z,3.00
2023-08-30T21:28:48.413Z,4.00
2023-08-30T21:31:15.178Z,2.88
2023-08-30T21:33:41.854Z,3.97
2023-08-30T21:36:11.384Z,3.17
2023-08-30T21:38:37.938Z,3.70
2023-08-30T21:41:05.076Z,3.05
2023-08-30T21:43:31.788Z,3.28
2023-08-30T21:45:58.322Z,3.22
2023-08-30T21:48:24.992Z,3.88
2023-08-30T21:50:51.575Z,3.40
2023-08-30T21:53:18.168Z,2.85
2023-08-30T21:55:44.681Z,3.35
2023-08-30T21:58:11.298Z,3.85
2023-08-30T22:00:37.946Z,3.17
2023-08-30T22:03:04.882Z,3.25
2023-08-30T22:05:31.641Z,2.95
2023-08-30T22:07:58.257Z,3.38
2023-08-30T22:10:25.170Z,2.83
2023-08-30T22:12:51.869Z,3.47
2023-08-30T22:15:18.633Z,2.95
2023-08-30T22:17:50.479Z,3.28
2023-08-30T22:20:19.613Z,2.95
2023-08-30T22:22:46.984Z,3.55
2023-08-30T22:25:14.253Z,2.60
2023-08-30T22:27:41.854Z,2.95
2023-08-30T22:30:09.861Z,3.65
2023-08-30T22:32:37.032Z,3.38
2023-08-30T22:35:04.738Z,2.97
2023-08-30T22:37:32.533Z,3.58
2023-08-30T22:40:00.131Z,3.47
2023-08-30T22:42:29.763Z,3.50
2023-08-30T22:44:56.739Z,3.67
2023-08-30T22:47:23.445Z,3.22
2023-08-30T22:49:50.202Z,3.17
2023-08-30T22:52:16.783Z,4.32
2023-08-30T22:54:43.450Z,4.35
2023-08-30T22:57:10.015Z,4.00
2023-08-30T22:59:36.710Z,4.18
2023-08-30T23:02:03.379Z,3.47
2023-08-30T23:04:30.094Z,3.97
2023-08-30T23:06:56.769Z,3.90
2023-08-30T23:09:23.864Z,4.32
2023-08-30T23:11:50.663Z,4.53
2023-08-30T23:14:17.267Z,3.83
2023-08-30T23:16:43.960Z,5.05
2023-08-30T23:19:10.649Z,4.47
2023-08-30T23:21:37.455Z,5.15
2023-08-30T23:24:04.300Z,4.38
2023-08-30T23:26:30.942Z,3.75
2023-08-30T23:28:57.724Z,4.70
2023-08-30T23:31:24.547Z,3.72
2023-08-30T23:33:51.313Z,5.13
2023-08-30T23:36:17.940Z,3.83
2023-08-30T23:38:47.396Z,3.63
2023-08-30T23:41:14.558Z,4.28
2023-08-30T23:43:41.242Z,3.55
2023-08-30T23:46:07.912Z,3.83
2023-08-30T23:48:34.590Z,4.18
2023-08-30T23:51:01.203Z,3.78
2023-08-30T23:53:27.783Z,5.72
2023-08-30T23:55:54.518Z,4.25
2023-08-30T23:58:24.393Z,4.18
